createdAt,value
2022-07-30T00:01:56.895Z,55.99
2022-07-30T00:04:24.634Z,56.17
2022-07-30T00:06:51.600Z,56.14
2022-07-30T00:09:18.811Z,56.14
2022-07-30T00:11:45.962Z,56.54
2022-07-30T00:14:12.823Z,56.71
2022-07-30T00:16:39.786Z,56.84
2022-07-30T00:19:07.035Z,57.12
2022-07-30T00:21:38.727Z,56.94
2022-07-30T00:24:08.790Z,56.89
2022-07-30T00:26:36.006Z,57.22
2022-07-30T00:29:03.465Z,57.28
2022-07-30T00:31:30.618Z,57.30
2022-07-30T00:33:57.504Z,57.59
2022-07-30T00:36:24.619Z,58.10
2022-07-30T00:38:51.478Z,57.98
2022-07-30T00:41:18.352Z,58.22
2022-07-30T00:43:45.517Z,58.08
2022-07-30T00:46:12.755Z,58.08
2022-07-30T00:48:39.699Z,58.43
2022-07-30T00:51:07.028Z,58.40
2022-07-30T00:53:35.181Z,58.77
2022-07-30T00:56:03.071Z,58.72
2022-07-30T00:58:30.267Z,59.04
2022-07-30T01:00:57.293Z,59.04
2022-07-30T01:03:24.652Z,59.06
2022-07-30T01:05:51.834Z,58.96
2022-07-30T01:08:18.745Z,59.20
2022-07-30T01:10:45.579Z,59.54
2022-07-30T01:13:13.183Z,60.10
2022-07-30T01:15:40.481Z,60.00
2022-07-30T01:18:11.702Z,59.76
2022-07-30T01:20:49.653Z,59.84
2022-07-30T01:23:32.776Z,60.00
2022-07-30T01:26:05.739Z,60.18
2022-07-30T01:28:38.017Z,60.26
2022-07-30T01:31:06.963Z,60.28
2022-07-30T01:33:37.606Z,59.95
2022-07-30T01:36:07.348Z,60.19
2022-07-30T01:38:36.667Z,60.13
2022-07-30T01:41:08.650Z,60.07
2022-07-30T01:43:36.647Z,60.24
2022-07-30T01:46:05.021Z,60.29
2022-07-30T01:48:35.923Z,59.95
2022-07-30T01:51:06.849Z,60.18
2022-07-30T01:53:41.786Z,59.77
2022-07-30T01:56:12.002Z,60.12
2022-07-30T01:58:41.285Z,60.38
2022-07-30T02:01:08.464Z,60.50
2022-07-30T02:03:35.847Z,60.43
2022-07-30T02:06:13.493Z,60.23
2022-07-30T02:08:54.519Z,60.15
2022-07-30T02:11:40.507Z,60.44
2022-07-30T02:14:13.923Z,59.99
2022-07-30T02:16:43.336Z,60.22
2022-07-30T02:19:14.879Z,60.26
2022-07-30T02:22:06.799Z,60.36
2022-07-30T02:24:37.609Z,60.02
2022-07-30T02:27:15.387Z,59.62
2022-07-30T02:29:44.571Z,60.02
2022-07-30T02:32:15.069Z,59.75
2022-07-30T02:34:48.413Z,60.08
2022-07-30T02:37:16.330Z,59.75
2022-07-30T02:39:44.227Z,59.49
2022-07-30T02:42:15.032Z,59.46
2022-07-30T02:44:44.064Z,59.45
2022-07-30T02:47:13.172Z,59.67
2022-07-30T02:49:41.192Z,59.26
2022-07-30T02:52:12.598Z,59.43
2022-07-30T02:54:44.256Z,59.32
2022-07-30T02:57:12.280Z,58.90
2022-07-30T02:59:42.010Z,58.98
2022-07-30T03:02:10.365Z,58.86
2022-07-30T03:04:38.827Z,59.10
2022-07-30T03:07:08.733Z,58.67
2022-07-30T03:09:50.934Z,58.39
2022-07-30T03:12:19.510Z,58.29
2022-07-30T03:14:46.628Z,58.28
2022-07-30T03:17:16.188Z,58.48
2022-07-30T03:19:45.176Z,58.18
2022-07-30T03:22:14.966Z,57.85
2022-07-30T03:24:44.526Z,58.17
2022-07-30T03:27:13.918Z,57.71
2022-07-30T03:29:44.391Z,57.46
2022-07-30T03:32:16.200Z,57.37
2022-07-30T03:34:46.706Z,56.95
2022-07-30T03:37:14.463Z,56.18
2022-07-30T03:39:41.949Z,55.83
2022-07-30T03:42:09.485Z,55.49
2022-07-30T03:44:38.060Z,55.51
2022-07-30T03:47:07.293Z,54.99
2022-07-30T03:49:34.574Z,55.00
2022-07-30T03:52:02.223Z,55.34
2022-07-30T03:54:30.913Z,55.03
2022-07-30T03:56:58.021Z,54.65
2022-07-30T03:59:25.217Z,54.56
2022-07-30T04:01:54.438Z,54.26
2022-07-30T04:04:21.494Z,54.15
2022-07-30T04:06:48.500Z,53.94
2022-07-30T04:09:17.374Z,53.73
2022-07-30T04:11:44.374Z,53.43
2022-07-30T04:14:11.289Z,53.23
2022-07-30T04:16:47.751Z,52.93
2022-07-30T04:19:29.754Z,52.59
2022-07-30T04:21:58.784Z,52.46
2022-07-30T04:24:27.283Z,52.21
2022-07-30T04:26:54.417Z,52.24
2022-07-30T04:29:24.735Z,51.95
2022-07-30T04:31:55.650Z,51.51
2022-07-30T04:34:22.461Z,51.13
2022-07-30T04:36:49.410Z,50.96
2022-07-30T04:39:16.319Z,50.61
2022-07-30T04:41:49.034Z,50.29
2022-07-30T04:44:18.745Z,49.93
2022-07-30T04:46:46.868Z,49.81
2022-07-30T04:49:17.909Z,49.25
2022-07-30T04:51:46.289Z,48.99
2022-07-30T04:54:16.342Z,48.89
2022-07-30T04:56:50.222Z,48.03
2022-07-30T04:59:23.873Z,46.92
2022-07-30T05:01:52.530Z,46.47
2022-07-30T05:04:22.222Z,46.13
2022-07-30T05:06:50.113Z,45.50
2022-07-30T05:09:17.683Z,45.20
2022-07-30T05:11:51.562Z,45.07
2022-07-30T05:14:18.515Z,45.17
2022-07-30T05:16:45.714Z,44.68
2022-07-30T05:19:20.458Z,43.92
2022-07-30T05:21:47.417Z,43.42
2022-07-30T05:24:14.943Z,42.92
2022-07-30T05:26:41.859Z,42.35
2022-07-30T05:29:08.876Z,41.83
2022-07-30T05:31:36.053Z,41.13
2022-07-30T05:34:05.104Z,40.66
2022-07-30T05:36:32.257Z,39.93
2022-07-30T05:38:59.291Z,39.28
2022-07-30T05:41:31.832Z,38.73
2022-07-30T05:44:02.073Z,38.22
2022-07-30T05:46:31.028Z,38.05
2022-07-30T05:48:58.270Z,37.49
2022-07-30T05:51:25.075Z,36.90
2022-07-30T05:53:52.150Z,36.56
2022-07-30T05:56:18.967Z,36.50
2022-07-30T05:58:46.248Z,35.87
2022-07-30T06:01:13.170Z,35.22
2022-07-30T06:03:40.157Z,33.55
2022-07-30T06:06:07.892Z,32.48
2022-07-30T06:08:35.127Z,31.73
2022-07-30T06:11:02.072Z,30.16
2022-07-30T06:13:29.164Z,27.39
2022-07-30T06:15:56.125Z,22.01
2022-07-30T06:18:23.499Z,21.17
2022-07-30T06:20:52.167Z,23.39
2022-07-30T06:23:20.026Z,24.39
2022-07-30T06:25:50.803Z,24.84
2022-07-30T06:31:06.991Z,25.80
2022-07-30T06:33:34.026Z,25.74
2022-07-30T06:36:00.794Z,26.22
2022-07-30T06:38:28.553Z,27.14
2022-07-30T06:40:59.298Z,28.39
2022-07-30T06:43:28.911Z,28.24
2022-07-30T06:45:56.119Z,27.02
2022-07-30T06:48:23.223Z,27.89
2022-07-30T06:50:50.512Z,29.36
2022-07-30T06:53:17.359Z,30.15
2022-07-30T06:55:44.334Z,30.31
2022-07-30T06:58:11.231Z,30.02
2022-07-30T07:00:38.102Z,27.47
2022-07-30T07:03:07.586Z,24.42
2022-07-30T07:05:38.621Z,24.43
2022-07-30T07:08:05.746Z,24.56
2022-07-30T07:10:32.607Z,26.04
2022-07-30T07:13:00.842Z,27.29
2022-07-30T07:15:32.850Z,27.55
2022-07-30T07:18:05.234Z,22.07
2022-07-30T07:20:32.837Z,23.00
2022-07-30T07:22:59.915Z,24.88
2022-07-30T07:25:27.372Z,27.25
2022-07-30T07:28:11.741Z,25.21
2022-07-30T07:30:42.300Z,23.15
2022-07-30T07:33:10.139Z,20.17
2022-07-30T07:35:40.384Z,22.92
2022-07-30T07:38:16.667Z,26.08
2022-07-30T07:40:43.605Z,20.83
2022-07-30T07:43:10.530Z,19.76
2022-07-30T07:45:37.396Z,22.86
2022-07-30T07:48:04.782Z,20.20
2022-07-30T07:50:31.673Z,16.46
2022-07-30T07:52:58.477Z,14.13
2022-07-30T07:55:25.762Z,15.92
2022-07-30T07:57:53.033Z,15.39
2022-07-30T08:00:21.042Z,12.52
2022-07-30T08:02:48.987Z,10.04
2022-07-30T08:05:17.189Z,12.98
2022-07-30T08:07:46.744Z,13.75
2022-07-30T08:10:16.056Z,12.31
2022-07-30T08:12:43.557Z,10.12
2022-07-30T08:15:10.838Z,8.71
2022-07-30T08:17:45.314Z,7.50
2022-07-30T08:20:14.238Z,6.78
2022-07-30T08:22:41.350Z,6.01
2022-07-30T08:25:08.984Z,6.45
2022-07-30T08:27:36.018Z,6.46
2022-07-30T08:30:07.457Z,5.94
2022-07-30T08:32:35.163Z,4.94
2022-07-30T08:35:02.520Z,4.54
2022-07-30T08:37:30.320Z,4.22
2022-07-30T08:39:57.132Z,4.19
2022-07-30T08:42:24.254Z,3.98
2022-07-30T08:44:53.576Z,5.79
2022-07-30T08:47:23.778Z,8.41
2022-07-30T08:49:50.913Z,11.95
2022-07-30T08:52:20.059Z,14.27
2022-07-30T08:54:46.973Z,16.23
2022-07-30T08:57:15.347Z,17.65
2022-07-30T08:59:59.982Z,16.10
2022-07-30T09:02:31.133Z,14.14
2022-07-30T09:04:58.371Z,15.86
2022-07-30T09:07:25.760Z,12.73
2022-07-30T09:09:52.700Z,10.04
2022-07-30T09:12:42.316Z,11.68
2022-07-30T09:15:20.546Z,14.50
2022-07-30T09:17:50.378Z,16.93
2022-07-30T09:20:18.522Z,19.18
2022-07-30T09:22:51.902Z,19.98
2022-07-30T09:25:46.109Z,21.74
2022-07-30T09:28:16.173Z,22.65
2022-07-30T09:30:47.795Z,19.59
2022-07-30T09:33:15.154Z,13.08
2022-07-30T09:35:45.415Z,9.94
2022-07-30T09:38:13.058Z,8.21
2022-07-30T09:40:42.915Z,6.89
2022-07-30T09:43:11.637Z,7.22
2022-07-30T09:45:56.885Z,9.71
2022-07-30T09:48:27.426Z,12.24
2022-07-30T09:50:57.604Z,14.13
2022-07-30T09:53:24.831Z,15.68
2022-07-30T09:55:51.723Z,16.29
2022-07-30T09:58:26.509Z,17.94
2022-07-30T10:00:59.789Z,19.07
2022-07-30T10:03:34.252Z,19.80
2022-07-30T10:06:11.240Z,20.52
2022-07-30T10:08:52.829Z,21.61
2022-07-30T10:11:26.172Z,22.68
2022-07-30T10:13:59.459Z,23.23
2022-07-30T10:16:27.954Z,23.89
2022-07-30T10:19:00.324Z,24.08
2022-07-30T10:21:28.599Z,24.56
2022-07-30T10:23:59.670Z,24.49
2022-07-30T10:26:28.239Z,24.69
2022-07-30T10:28:55.805Z,24.50
2022-07-30T10:31:48.145Z,24.45
2022-07-30T10:34:11.673Z,24.95
2022-07-30T10:36:42.135Z,24.49
2022-07-30T10:39:13.609Z,23.93
2022-07-30T10:41:54.195Z,24.05
2022-07-30T10:45:06.001Z,24.72
2022-07-30T10:47:40.218Z,24.48
2022-07-30T10:50:15.467Z,24.88
2022-07-30T10:52:53.753Z,24.88
2022-07-30T10:55:37.461Z,25.06
2022-07-30T10:58:15.754Z,24.78
2022-07-30T11:00:52.640Z,24.69
2022-07-30T11:03:40.448Z,24.84
2022-07-30T11:06:15.258Z,25.14
2022-07-30T11:08:48.641Z,24.37
2022-07-30T11:11:59.643Z,24.37
2022-07-30T11:14:08.310Z,24.50
2022-07-30T11:16:35.186Z,24.63
2022-07-30T11:19:54.875Z,25.28
2022-07-30T11:22:27.486Z,25.26
2022-07-30T11:24:54.783Z,24.82
2022-07-30T11:27:42.082Z,25.41
2022-07-30T11:30:17.153Z,24.68
2022-07-30T11:33:18.621Z,24.67
2022-07-30T11:36:07.928Z,24.82
2022-07-30T11:39:05.188Z,24.83
2022-07-30T11:41:34.287Z,25.05
2022-07-30T11:44:30.047Z,24.79
2022-07-30T11:46:57.089Z,24.97
2022-07-30T11:49:24.674Z,25.23
2022-07-30T11:51:51.661Z,25.04
2022-07-30T11:54:18.962Z,24.84
2022-07-30T11:57:04.781Z,24.72
2022-07-30T11:59:31.968Z,24.77
2022-07-30T12:02:01.974Z,25.39
2022-07-30T12:04:30.044Z,25.68
2022-07-30T12:06:57.030Z,25.30
2022-07-30T12:09:29.421Z,25.22
2022-07-30T12:11:57.689Z,25.02
2022-07-30T12:14:25.548Z,25.36
2022-07-30T12:16:54.335Z,25.28
2022-07-30T12:19:29.910Z,25.19
2022-07-30T12:22:14.887Z,25.25
2022-07-30T12:24:41.972Z,25.42
2022-07-30T12:27:08.919Z,25.11
2022-07-30T12:29:36.658Z,25.11
2022-07-30T12:32:04.019Z,24.74
2022-07-30T12:34:30.853Z,24.47
2022-07-30T12:37:10.544Z,24.53
2022-07-30T12:39:37.710Z,24.96
2022-07-30T12:42:04.827Z,25.22
2022-07-30T12:44:38.828Z,24.66
2022-07-30T12:47:07.606Z,25.22
2022-07-30T12:49:39.352Z,25.10
2022-07-30T12:52:27.637Z,24.67
2022-07-30T12:55:10.181Z,24.78
2022-07-30T12:57:56.869Z,24.69
2022-07-30T13:00:29.643Z,24.98
2022-07-30T13:02:57.380Z,24.97
2022-07-30T13:05:50.372Z,25.24
2022-07-30T13:08:17.940Z,25.94
2022-07-30T13:11:00.200Z,26.49
2022-07-30T13:13:28.197Z,26.94
2022-07-30T13:16:03.252Z,26.67
2022-07-30T13:18:31.799Z,26.65
2022-07-30T13:20:59.860Z,27.02
2022-07-30T13:23:27.759Z,26.69
2022-07-30T13:25:54.708Z,26.21
2022-07-30T13:28:22.042Z,26.45
2022-07-30T13:30:49.513Z,26.10
2022-07-30T13:33:16.403Z,26.29
2022-07-30T13:35:43.932Z,25.72
2022-07-30T13:38:14.087Z,25.19
2022-07-30T13:40:41.526Z,25.34
2022-07-30T13:43:08.919Z,25.34
2022-07-30T13:45:36.173Z,25.26
2022-07-30T13:48:04.150Z,25.52
2022-07-30T13:50:31.086Z,25.62
2022-07-30T13:53:01.945Z,25.71
2022-07-30T13:55:29.417Z,26.42
2022-07-30T13:57:56.465Z,26.56
2022-07-30T14:00:23.735Z,26.68
2022-07-30T14:02:51.188Z,27.10
2022-07-30T14:05:18.472Z,26.92
2022-07-30T14:07:45.311Z,27.19
2022-07-30T14:10:13.383Z,27.09
2022-07-30T14:12:40.234Z,27.06
2022-07-30T14:15:12.908Z,26.61
2022-07-30T14:17:42.939Z,26.98
2022-07-30T14:20:24.140Z,26.94
2022-07-30T14:22:51.710Z,27.27
2022-07-30T14:25:19.272Z,27.79
2022-07-30T14:27:46.760Z,28.04
2022-07-30T14:30:15.119Z,27.71
2022-07-30T14:32:42.390Z,27.38
2022-07-30T14:35:10.418Z,27.33
2022-07-30T14:37:39.395Z,27.18
2022-07-30T14:40:10.231Z,27.07
2022-07-30T14:42:40.078Z,26.67
2022-07-30T14:45:09.159Z,26.53
2022-07-30T14:47:37.763Z,26.44
2022-07-30T14:50:05.152Z,26.26
2022-07-30T14:52:35.150Z,26.52
2022-07-30T14:55:03.912Z,26.43
2022-07-30T14:57:33.575Z,26.49
2022-07-30T15:00:00.933Z,26.65
2022-07-30T15:02:28.022Z,26.62
2022-07-30T15:04:54.863Z,27.14
2022-07-30T15:07:21.690Z,27.11
2022-07-30T15:09:48.606Z,27.02
2022-07-30T15:12:23.418Z,27.23
2022-07-30T15:14:50.922Z,27.06
2022-07-30T15:17:19.298Z,26.88
2022-07-30T15:19:50.737Z,27.01
2022-07-30T15:22:19.917Z,27.21
2022-07-30T15:24:46.981Z,27.53
2022-07-30T15:27:13.799Z,27.13
2022-07-30T15:29:40.637Z,27.09
2022-07-30T15:32:07.834Z,27.01
2022-07-30T15:34:35.159Z,27.03
2022-07-30T15:37:03.951Z,27.10
2022-07-30T15:39:33.879Z,27.51
2022-07-30T15:42:02.327Z,27.75
2022-07-30T15:44:29.750Z,27.72
2022-07-30T15:46:56.640Z,27.79
2022-07-30T15:49:23.838Z,27.69
2022-07-30T15:51:51.968Z,27.63
2022-07-30T15:54:22.706Z,27.78
2022-07-30T15:56:54.117Z,28.14
2022-07-30T15:59:29.157Z,28.27
2022-07-30T16:01:56.114Z,27.91
2022-07-30T16:04:31.547Z,27.58
2022-07-30T16:07:01.192Z,27.66
2022-07-30T16:09:30.670Z,27.47
2022-07-30T16:11:58.905Z,27.47
2022-07-30T16:14:26.889Z,27.66
2022-07-30T16:16:53.719Z,27.70
2022-07-30T16:19:20.550Z,27.85
2022-07-30T16:21:47.449Z,27.95
2022-07-30T16:24:14.396Z,28.05
2022-07-30T16:26:41.286Z,28.74
2022-07-30T16:29:13.555Z,29.21
2022-07-30T16:31:40.897Z,29.50
2022-07-30T16:34:07.828Z,30.00
2022-07-30T16:36:35.125Z,30.40
2022-07-30T16:39:02.047Z,30.67
2022-07-30T16:41:29.046Z,30.92
2022-07-30T16:43:55.902Z,30.86
2022-07-30T16:46:24.016Z,31.05
2022-07-30T16:48:51.501Z,31.22
2022-07-30T16:51:18.496Z,31.74
2022-07-30T16:53:46.329Z,32.17
2022-07-30T16:56:13.227Z,31.94
2022-07-30T16:58:40.040Z,32.70
2022-07-30T17:01:06.935Z,32.42
2022-07-30T17:03:34.120Z,32.33
2022-07-30T17:06:01.155Z,32.40
2022-07-30T17:08:27.962Z,32.91
2022-07-30T17:10:55.374Z,33.54
2022-07-30T17:13:24.178Z,33.94
2022-07-30T17:15:51.231Z,34.37
2022-07-30T17:18:18.192Z,34.40
2022-07-30T17:20:45.258Z,33.93
2022-07-30T17:23:12.781Z,33.15
2022-07-30T17:25:39.591Z,32.95
2022-07-30T17:28:06.468Z,32.87
2022-07-30T17:30:33.636Z,33.37
2022-07-30T17:33:00.458Z,33.59
2022-07-30T17:35:27.525Z,33.88
2022-07-30T17:37:54.708Z,34.59
2022-07-30T17:40:28.942Z,34.22
2022-07-30T17:43:04.200Z,34.26
2022-07-30T17:45:34.455Z,33.88
2022-07-30T17:48:08.849Z,33.87
2022-07-30T17:50:36.043Z,33.71
2022-07-30T17:53:04.637Z,33.57
2022-07-30T17:55:35.272Z,33.85
2022-07-30T17:58:05.677Z,34.47
2022-07-30T18:00:34.914Z,35.24
2022-07-30T18:03:04.626Z,35.99
2022-07-30T18:05:31.577Z,36.36
2022-07-30T18:08:00.890Z,36.50
2022-07-30T18:10:27.681Z,36.62
2022-07-30T18:12:54.707Z,36.64
2022-07-30T18:15:21.703Z,36.91
2022-07-30T18:17:48.567Z,37.34
2022-07-30T18:20:16.067Z,37.81
2022-07-30T18:22:43.004Z,37.76
2022-07-30T18:25:19.043Z,37.91
2022-07-30T18:27:47.418Z,38.47
2022-07-30T18:30:14.866Z,38.62
2022-07-30T18:32:41.866Z,38.97
2022-07-30T18:35:13.628Z,38.95
2022-07-30T18:37:41.997Z,39.11
2022-07-30T18:40:10.568Z,39.16
2022-07-30T18:42:38.031Z,39.31
2022-07-30T18:45:05.679Z,39.20
2022-07-30T18:47:32.679Z,39.53
2022-07-30T18:49:59.643Z,39.77
2022-07-30T18:52:26.856Z,39.89
2022-07-30T18:54:53.798Z,39.96
2022-07-30T18:57:21.037Z,40.44
2022-07-30T18:59:47.836Z,40.62
2022-07-30T19:02:14.703Z,40.87
2022-07-30T19:04:41.668Z,40.74
2022-07-30T19:07:08.569Z,40.98
2022-07-30T19:09:35.579Z,41.05
2022-07-30T19:12:03.690Z,40.87
2022-07-30T19:14:31.005Z,41.07
2022-07-30T19:16:59.464Z,41.17
2022-07-30T19:19:27.150Z,41.15
2022-07-30T19:21:54.095Z,41.05
2022-07-30T19:24:21.021Z,41.43
2022-07-30T19:26:47.847Z,41.50
2022-07-30T19:29:14.863Z,41.66
2022-07-30T19:31:41.814Z,41.80
2022-07-30T19:34:10.878Z,41.97
2022-07-30T19:36:38.354Z,42.10
2022-07-30T19:39:07.709Z,42.16
2022-07-30T19:41:40.991Z,42.22
2022-07-30T19:44:12.217Z,42.17
2022-07-30T19:46:41.443Z,42.60
2022-07-30T19:49:10.050Z,42.85
2022-07-30T19:52:10.997Z,42.80
2022-07-30T19:54:27.159Z,42.92
2022-07-30T19:56:54.038Z,42.90
2022-07-30T19:59:25.289Z,43.21
2022-07-30T20:02:08.641Z,43.60
2022-07-30T20:04:36.811Z,43.65
2022-07-30T20:07:04.346Z,43.93
2022-07-30T20:09:33.913Z,43.94
2022-07-30T20:12:02.560Z,44.07
2022-07-30T20:14:30.185Z,44.25
2022-07-30T20:16:58.274Z,44.23
2022-07-30T20:19:35.906Z,44.55
2022-07-30T20:22:03.245Z,44.75
2022-07-30T20:24:30.083Z,45.00
2022-07-30T20:26:58.124Z,45.13
2022-07-30T20:29:25.085Z,45.09
2022-07-30T20:31:51.908Z,45.31
2022-07-30T20:34:25.779Z,45.25
2022-07-30T20:36:53.996Z,45.42
2022-07-30T20:39:24.231Z,45.63
2022-07-30T20:42:07.709Z,45.78
2022-07-30T20:44:57.141Z,45.77
2022-07-30T20:47:34.379Z,45.75
2022-07-30T20:50:14.454Z,45.81
2022-07-30T20:52:46.831Z,45.60
2022-07-30T20:55:22.100Z,45.84
2022-07-30T20:58:00.242Z,45.85
2022-07-30T21:00:36.974Z,46.09
2022-07-30T21:03:05.654Z,46.03
2022-07-30T21:05:32.642Z,46.22
2022-07-30T21:07:59.586Z,46.24
2022-07-30T21:10:27.737Z,46.33
2022-07-30T21:13:02.873Z,46.10
2022-07-30T21:15:45.413Z,46.63
2022-07-30T21:18:28.456Z,46.67
2022-07-30T21:20:56.981Z,46.93
2022-07-30T21:23:24.816Z,46.77
2022-07-30T21:26:03.045Z,47.12
2022-07-30T21:28:35.277Z,47.15
2022-07-30T21:31:07.089Z,47.17
2022-07-30T21:33:36.501Z,47.25
2022-07-30T21:36:04.368Z,47.25
2022-07-30T21:38:32.019Z,47.38
2022-07-30T21:41:01.273Z,47.22
2022-07-30T21:43:29.969Z,47.45
2022-07-30T21:46:03.741Z,47.59
2022-07-30T21:48:33.444Z,47.84
2022-07-30T21:51:00.272Z,47.85
2022-07-30T21:53:45.001Z,48.05
2022-07-30T21:56:13.773Z,48.13
2022-07-30T21:58:41.976Z,48.13
2022-07-30T22:01:17.233Z,48.28
2022-07-30T22:04:02.744Z,48.46
2022-07-30T22:06:41.297Z,48.35
2022-07-30T22:09:19.459Z,48.61
2022-07-30T22:12:01.099Z,48.56
2022-07-30T22:14:29.196Z,48.64
2022-07-30T22:16:56.721Z,48.71
2022-07-30T22:19:23.812Z,49.00
2022-07-30T22:21:52.987Z,49.13
2022-07-30T22:24:29.264Z,49.37
2022-07-30T22:27:01.367Z,49.35
2022-07-30T22:29:34.513Z,49.25
2022-07-30T22:32:04.142Z,49.48
2022-07-30T22:34:31.668Z,49.54
2022-07-30T22:36:58.807Z,49.68
2022-07-30T22:39:32.418Z,49.82
2022-07-30T22:42:13.158Z,49.80
2022-07-30T22:44:39.995Z,49.90
2022-07-30T22:47:18.923Z,50.24
2022-07-30T22:49:52.731Z,50.46
2022-07-30T22:52:25.355Z,50.41
2022-07-30T22:54:55.222Z,50.74
2022-07-30T22:57:22.907Z,51.00
2022-07-30T22:59:59.909Z,51.18
2022-07-30T23:02:27.798Z,51.27
2022-07-30T23:04:56.380Z,51.67
2022-07-30T23:07:23.640Z,51.62
2022-07-30T23:10:04.899Z,51.78
2022-07-30T23:12:51.550Z,51.93
2022-07-30T23:15:20.022Z,52.06
2022-07-30T23:17:47.863Z,52.05
2022-07-30T23:20:17.596Z,52.10
2022-07-30T23:22:44.669Z,52.53
2022-07-30T23:25:12.858Z,52.49
2022-07-30T23:27:40.973Z,52.58
2022-07-30T23:30:10.730Z,52.62
2022-07-30T23:32:38.236Z,52.78
2022-07-30T23:35:06.876Z,52.81
2022-07-30T23:37:47.555Z,53.27
2022-07-30T23:40:15.807Z,53.41
2022-07-30T23:42:42.617Z,53.40
2022-07-30T23:45:09.965Z,53.58
2022-07-30T23:47:51.183Z,53.63
2022-07-30T23:50:25.575Z,54.01
2022-07-30T23:52:52.455Z,54.14
2022-07-30T23:55:19.302Z,54.12
2022-07-30T23:57:46.099Z,54.31
